createdAt,value
2023-04-24T00:01:03.372Z,16.46
2023-04-24T00:03:35.884Z,16.51
2023-04-24T00:06:09.273Z,16.44
2023-04-24T00:08:41.774Z,16.52
2023-04-24T00:11:14.346Z,16.50
2023-04-24T00:13:46.584Z,16.51
2023-04-24T00:16:19.280Z,16.51
2023-04-24T00:18:53.773Z,16.52
2023-04-24T00:21:26.851Z,16.53
2023-04-24T00:23:59.322Z,16.53
2023-04-24T00:26:31.776Z,16.53
2023-04-24T00:29:04.763Z,16.52
2023-04-24T00:31:37.623Z,16.54
2023-04-24T00:34:09.884Z,16.53
2023-04-24T00:36:42.896Z,16.53
2023-04-24T00:39:15.695Z,16.53
2023-04-24T00:41:49.616Z,16.52
2023-04-24T00:44:22.052Z,16.52
2023-04-24T00:46:55.853Z,16.52
2023-04-24T00:49:28.500Z,16.52
2023-04-24T00:52:00.986Z,16.52
2023-04-24T00:54:33.208Z,16.53
2023-04-24T00:57:07.221Z,16.52
2023-04-24T00:59:42.334Z,16.52
2023-04-24T01:02:16.895Z,16.52
2023-04-24T01:04:49.237Z,16.51
2023-04-24T01:07:22.976Z,16.51
2023-04-24T01:09:57.448Z,16.54
2023-04-24T01:12:31.596Z,16.53
2023-04-24T01:15:06.212Z,16.54
2023-04-24T01:17:39.765Z,16.54
2023-04-24T01:20:13.196Z,16.52
2023-04-24T01:22:47.391Z,16.53
2023-04-24T01:25:21.276Z,16.46
2023-04-24T01:27:54.121Z,16.45
2023-04-24T01:30:26.914Z,16.51
2023-04-24T01:33:00.885Z,16.45
2023-04-24T01:35:33.633Z,16.52
2023-04-24T01:38:06.723Z,16.51
2023-04-24T01:40:39.164Z,16.50
2023-04-24T01:43:11.761Z,16.49
2023-04-24T01:45:44.442Z,16.48
2023-04-24T01:48:17.306Z,16.49
2023-04-24T01:50:49.874Z,16.49
2023-04-24T01:53:22.294Z,16.47
2023-04-24T01:55:54.944Z,16.47
2023-04-24T01:58:27.521Z,16.47
2023-04-24T02:01:02.151Z,16.45
2023-04-24T02:03:34.918Z,16.42
2023-04-24T02:06:07.628Z,16.43
2023-04-24T02:08:40.071Z,16.39
2023-04-24T02:11:13.803Z,16.43
2023-04-24T02:13:46.441Z,16.44
2023-04-24T02:16:18.888Z,16.43
2023-04-24T02:18:51.338Z,16.35
2023-04-24T02:21:23.856Z,16.40
2023-04-24T02:23:56.595Z,16.37
2023-04-24T02:26:29.095Z,16.36
2023-04-24T02:29:01.628Z,16.36
2023-04-24T02:31:34.997Z,16.37
2023-04-24T02:34:07.627Z,16.36
2023-04-24T02:36:40.282Z,16.35
2023-04-24T02:39:14.584Z,16.34
2023-04-24T02:41:46.937Z,16.29
2023-04-24T02:44:19.465Z,16.34
2023-04-24T02:46:51.932Z,16.32
2023-04-24T02:49:24.370Z,16.30
2023-04-24T02:51:56.911Z,16.29
2023-04-24T02:54:29.285Z,16.26
2023-04-24T02:57:02.232Z,16.23
2023-04-24T02:59:35.094Z,16.23
2023-04-24T03:02:07.838Z,16.23
2023-04-24T03:04:41.135Z,16.24
2023-04-24T03:07:13.959Z,16.22
2023-04-24T03:09:46.190Z,16.22
2023-04-24T03:12:18.904Z,16.20
2023-04-24T03:14:51.298Z,16.19
2023-04-24T03:17:25.170Z,16.18
2023-04-24T03:19:57.629Z,16.20
2023-04-24T03:22:30.317Z,16.19
2023-04-24T03:25:02.734Z,16.18
2023-04-24T03:27:35.033Z,16.17
2023-04-24T03:30:13.572Z,16.18
2023-04-24T03:32:50.786Z,16.18
2023-04-24T03:35:27.379Z,16.15
2023-04-24T03:38:00.513Z,16.13
2023-04-24T03:40:52.179Z,16.12
2023-04-24T03:43:38.246Z,16.09
2023-04-24T03:46:10.902Z,16.06
2023-04-24T03:48:47.089Z,16.05
2023-04-24T03:51:19.680Z,16.03
2023-04-24T03:53:53.096Z,16.01
2023-04-24T03:56:26.791Z,15.99
2023-04-24T03:58:59.131Z,15.97
2023-04-24T04:01:32.011Z,15.96
2023-04-24T04:04:09.151Z,15.95
2023-04-24T04:06:42.268Z,15.91
2023-04-24T04:09:15.017Z,15.93
2023-04-24T04:11:47.734Z,15.94
2023-04-24T04:14:19.975Z,15.90
2023-04-24T04:16:54.954Z,15.93
2023-04-24T04:19:27.545Z,15.82
2023-04-24T04:22:00.253Z,15.88
2023-04-24T04:24:44.281Z,15.96
2023-04-24T04:27:19.706Z,15.98
2023-04-24T04:30:16.118Z,15.99
2023-04-24T04:32:56.357Z,15.98
2023-04-24T04:35:29.778Z,15.90
2023-04-24T04:38:02.357Z,15.96
2023-04-24T04:40:49.949Z,15.88
2023-04-24T04:43:23.252Z,15.93
2023-04-24T04:45:57.526Z,15.85
2023-04-24T04:49:03.616Z,15.92
2023-04-24T04:51:35.982Z,16.00
2023-04-24T04:54:09.236Z,15.97
2023-04-24T04:56:42.576Z,15.98
2023-04-24T04:59:16.032Z,16.04
2023-04-24T05:01:48.525Z,16.03
2023-04-24T05:04:21.933Z,16.03
2023-04-24T05:06:54.739Z,16.08
2023-04-24T05:09:28.429Z,16.15
2023-04-24T05:12:04.183Z,16.15
2023-04-24T05:14:38.989Z,15.97
2023-04-24T05:17:11.565Z,16.00
2023-04-24T05:19:44.129Z,16.06
2023-04-24T05:22:18.649Z,16.10
2023-04-24T05:25:03.583Z,16.18
2023-04-24T05:28:00.215Z,16.15
2023-04-24T05:30:33.036Z,16.07
2023-04-24T05:33:05.476Z,16.12
2023-04-24T05:35:40.052Z,16.21
2023-04-24T05:38:12.614Z,16.26
2023-04-24T05:40:45.478Z,16.21
2023-04-24T05:43:18.089Z,16.21
2023-04-24T05:45:50.550Z,16.29
2023-04-24T05:48:24.528Z,16.33
2023-04-24T05:50:57.284Z,16.33
2023-04-24T05:53:29.924Z,16.43
2023-04-24T05:56:02.750Z,16.48
2023-04-24T05:58:35.507Z,16.47
2023-04-24T06:01:07.866Z,16.53
2023-04-24T06:03:42.762Z,16.57
2023-04-24T06:06:13.683Z,16.60
2023-04-24T06:08:46.653Z,16.63
2023-04-24T06:11:18.946Z,16.65
2023-04-24T06:13:51.647Z,16.68
2023-04-24T06:16:44.276Z,16.69
2023-04-24T06:19:27.616Z,16.72
2023-04-24T06:22:00.348Z,16.75
2023-04-24T06:24:32.793Z,16.75
2023-04-24T06:27:05.194Z,16.78
2023-04-24T06:29:38.607Z,16.83
2023-04-24T06:32:12.102Z,16.86
2023-04-24T06:34:44.549Z,16.91
2023-04-24T06:37:18.388Z,16.92
2023-04-24T06:39:51.130Z,16.94
2023-04-24T06:42:23.207Z,17.02
2023-04-24T06:44:55.776Z,17.04
2023-04-24T06:47:28.086Z,17.15
2023-04-24T06:50:00.358Z,17.15
2023-04-24T06:52:33.960Z,17.16
2023-04-24T06:55:06.874Z,17.12
2023-04-24T06:57:39.003Z,17.15
2023-04-24T07:00:13.766Z,17.04
2023-04-24T07:02:46.026Z,17.10
2023-04-24T07:05:20.945Z,17.17
2023-04-24T07:07:54.231Z,17.18
2023-04-24T07:10:28.297Z,17.23
2023-04-24T07:13:00.667Z,17.16
2023-04-24T07:15:33.478Z,17.23
2023-04-24T07:18:06.122Z,17.33
2023-04-24T07:20:38.506Z,17.38
2023-04-24T07:23:10.779Z,17.32
2023-04-24T07:25:43.281Z,17.33
2023-04-24T07:28:15.813Z,17.34
2023-04-24T07:30:48.107Z,17.32
2023-04-24T07:33:20.518Z,17.31
2023-04-24T07:35:53.085Z,17.36
2023-04-24T07:38:26.950Z,17.29
2023-04-24T07:40:59.949Z,17.40
2023-04-24T07:43:32.278Z,17.48
2023-04-24T07:46:06.051Z,17.52
2023-04-24T07:48:37.748Z,17.53
2023-04-24T07:51:11.207Z,17.61
2023-04-24T07:53:43.654Z,17.59
2023-04-24T07:56:15.955Z,17.65
2023-04-24T07:58:48.250Z,17.61
2023-04-24T08:01:20.245Z,17.57
2023-04-24T08:03:53.859Z,17.56
2023-04-24T08:06:31.208Z,17.66
2023-04-24T08:09:05.007Z,17.68
2023-04-24T08:11:37.640Z,17.70
2023-04-24T08:14:09.994Z,17.73
2023-04-24T08:16:42.214Z,17.70
2023-04-24T08:19:14.552Z,17.57
2023-04-24T08:21:47.261Z,17.57
2023-04-24T08:24:19.403Z,17.57
2023-04-24T08:26:52.610Z,17.54
2023-04-24T08:29:25.245Z,17.73
2023-04-24T08:31:59.465Z,17.76
2023-04-24T08:34:31.859Z,17.84
2023-04-24T08:37:04.574Z,17.75
2023-04-24T08:39:36.955Z,17.83
2023-04-24T08:42:10.819Z,17.86
2023-04-24T08:44:43.117Z,17.77
2023-04-24T08:47:17.524Z,17.81
2023-04-24T08:49:52.409Z,17.97
2023-04-24T08:52:25.073Z,18.17
2023-04-24T08:54:58.740Z,18.23
2023-04-24T08:57:32.135Z,18.37
2023-04-24T09:00:05.794Z,18.40
2023-04-24T09:02:38.115Z,18.39
2023-04-24T09:05:12.195Z,18.61
2023-04-24T09:07:46.932Z,18.74
2023-04-24T09:10:17.882Z,18.85
2023-04-24T09:12:52.275Z,18.99
2023-04-24T09:15:25.552Z,19.11
2023-04-24T09:17:58.115Z,19.26
2023-04-24T09:20:30.672Z,19.32
2023-04-24T09:23:03.004Z,19.37
2023-04-24T09:25:37.562Z,19.43
2023-04-24T09:28:09.966Z,19.45
2023-04-24T09:30:42.379Z,19.53
2023-04-24T09:33:18.855Z,19.27
2023-04-24T09:35:54.121Z,19.22
2023-04-24T09:38:34.788Z,19.38
2023-04-24T09:41:09.381Z,19.40
2023-04-24T09:43:42.041Z,19.29
2023-04-24T09:46:14.624Z,19.25
2023-04-24T09:48:46.911Z,19.07
2023-04-24T09:51:19.378Z,19.21
2023-04-24T09:53:55.008Z,19.20
2023-04-24T09:56:29.946Z,19.30
2023-04-24T09:59:08.400Z,19.23
2023-04-24T10:01:43.660Z,19.35
2023-04-24T10:04:23.934Z,19.18
2023-04-24T10:06:58.566Z,19.22
2023-04-24T10:09:30.933Z,19.27
2023-04-24T10:12:04.447Z,19.07
2023-04-24T10:14:37.286Z,19.15
2023-04-24T10:17:10.304Z,19.11
2023-04-24T10:19:45.718Z,19.06
2023-04-24T10:22:19.908Z,19.06
2023-04-24T10:24:54.494Z,18.91
2023-04-24T10:27:28.726Z,18.91
2023-04-24T10:30:02.353Z,18.75
2023-04-24T10:32:34.511Z,18.87
2023-04-24T10:35:10.747Z,19.08
2023-04-24T10:37:46.833Z,19.18
2023-04-24T10:40:27.705Z,19.20
2023-04-24T10:43:00.856Z,19.30
2023-04-24T10:45:33.581Z,19.49
2023-04-24T10:48:12.022Z,19.68
2023-04-24T10:50:48.873Z,20.07
2023-04-24T10:53:24.356Z,20.15
2023-04-24T10:56:04.412Z,20.12
2023-04-24T10:58:46.068Z,20.15
2023-04-24T11:01:29.490Z,20.13
2023-04-24T11:04:03.941Z,19.82
2023-04-24T11:06:38.005Z,19.70
2023-04-24T11:09:13.510Z,19.88
2023-04-24T11:11:50.174Z,19.82
2023-04-24T11:14:23.087Z,19.60
2023-04-24T11:16:57.762Z,19.50
2023-04-24T11:19:30.873Z,19.45
2023-04-24T11:22:05.797Z,19.50
2023-04-24T11:24:51.153Z,19.53
2023-04-24T11:27:26.630Z,19.43
2023-04-24T11:30:05.459Z,19.60
2023-04-24T11:32:41.069Z,19.66
2023-04-24T11:35:18.661Z,19.74
2023-04-24T11:40:27.964Z,20.20
2023-04-24T11:43:03.430Z,20.44
2023-04-24T11:45:36.041Z,20.46
2023-04-24T11:48:08.806Z,20.59
2023-04-24T11:50:42.295Z,20.71
2023-04-24T11:53:14.528Z,20.70
2023-04-24T11:55:46.662Z,20.73
2023-04-24T11:58:22.877Z,20.68
2023-04-24T12:01:02.346Z,20.65
2023-04-24T12:03:35.233Z,20.49
2023-04-24T12:06:12.317Z,20.48
2023-04-24T12:08:47.866Z,20.52
2023-04-24T12:11:20.848Z,20.18
2023-04-24T12:13:53.211Z,20.09
2023-04-24T12:16:26.633Z,20.01
2023-04-24T12:19:02.310Z,19.89
2023-04-24T12:21:34.609Z,20.03
2023-04-24T12:24:09.799Z,19.85
2023-04-24T12:26:46.732Z,19.94
2023-04-24T12:29:25.442Z,19.91
2023-04-24T12:31:58.193Z,19.73
2023-04-24T12:34:30.696Z,19.70
2023-04-24T12:37:15.339Z,19.66
2023-04-24T12:40:02.618Z,19.71
2023-04-24T12:42:35.264Z,19.70
2023-04-24T12:45:09.200Z,19.71
2023-04-24T12:47:42.939Z,19.71
2023-04-24T12:50:17.007Z,19.62
2023-04-24T12:52:49.221Z,19.51
2023-04-24T12:55:21.637Z,19.54
2023-04-24T12:57:56.370Z,19.46
2023-04-24T13:00:28.878Z,19.30
2023-04-24T13:03:01.480Z,19.26
2023-04-24T13:05:34.093Z,19.25
2023-04-24T13:08:06.690Z,19.28
2023-04-24T13:10:39.385Z,19.02
2023-04-24T13:13:12.189Z,18.97
2023-04-24T13:15:44.566Z,18.85
2023-04-24T13:18:17.465Z,18.48
2023-04-24T13:20:50.232Z,18.37
2023-04-24T13:23:22.462Z,18.46
2023-04-24T13:25:58.590Z,18.36
2023-04-24T13:28:31.400Z,18.35
2023-04-24T13:31:03.644Z,18.49
2023-04-24T13:33:36.269Z,18.63
2023-04-24T13:36:08.789Z,18.73
2023-04-24T13:38:40.978Z,18.83
2023-04-24T13:41:13.422Z,18.86
2023-04-24T13:43:46.356Z,18.94
2023-04-24T13:46:18.716Z,18.97
2023-04-24T13:48:51.448Z,19.00
2023-04-24T13:51:23.918Z,19.11
2023-04-24T13:53:56.731Z,19.09
2023-04-24T13:56:29.580Z,19.05
2023-04-24T13:59:02.075Z,19.19
2023-04-24T14:01:34.170Z,19.16
2023-04-24T14:04:06.568Z,18.90
2023-04-24T14:06:39.028Z,18.77
2023-04-24T14:09:11.650Z,18.77
2023-04-24T14:11:43.795Z,18.69
2023-04-24T14:14:16.176Z,18.81
2023-04-24T14:16:48.808Z,18.76
2023-04-24T14:19:21.487Z,18.73
2023-04-24T14:21:55.104Z,18.57
2023-04-24T14:24:27.770Z,18.43
2023-04-24T14:27:01.271Z,18.59
2023-04-24T14:29:35.249Z,18.46
2023-04-24T14:32:07.938Z,18.26
2023-04-24T14:34:41.192Z,18.28
2023-04-24T14:37:13.541Z,18.40
2023-04-24T14:39:50.035Z,18.33
2023-04-24T14:42:29.850Z,18.28
2023-04-24T14:45:02.421Z,18.06
2023-04-24T14:47:34.758Z,18.12
2023-04-24T14:50:09.238Z,18.09
2023-04-24T14:52:41.781Z,17.98
2023-04-24T14:55:14.291Z,17.98
2023-04-24T14:57:46.696Z,17.77
2023-04-24T15:00:21.392Z,17.91
2023-04-24T15:02:54.068Z,17.97
2023-04-24T15:05:27.304Z,17.93
2023-04-24T15:07:59.955Z,17.90
2023-04-24T15:10:32.385Z,18.06
2023-04-24T15:13:04.556Z,18.07
2023-04-24T15:15:37.991Z,17.83
2023-04-24T15:18:12.766Z,17.81
2023-04-24T15:20:43.955Z,17.81
2023-04-24T15:23:16.683Z,17.83
2023-04-24T15:25:49.047Z,18.06
2023-04-24T15:28:22.819Z,18.08
2023-04-24T15:30:55.135Z,18.13
2023-04-24T15:33:28.057Z,18.13
2023-04-24T15:36:00.562Z,18.18
2023-04-24T15:38:32.930Z,18.16
2023-04-24T15:41:05.726Z,18.02
2023-04-24T15:43:39.776Z,18.12
2023-04-24T15:46:13.248Z,18.17
2023-04-24T15:48:46.958Z,18.07
2023-04-24T15:51:19.439Z,17.90
2023-04-24T15:53:52.354Z,17.73
2023-04-24T15:56:24.822Z,17.72
2023-04-24T15:58:57.262Z,17.39
2023-04-24T16:01:29.695Z,17.23
2023-04-24T16:04:02.189Z,17.42
2023-04-24T16:06:34.386Z,17.39
2023-04-24T16:09:06.988Z,17.48
2023-04-24T16:11:40.156Z,17.55
2023-04-24T16:14:12.473Z,17.50
2023-04-24T16:16:44.734Z,17.55
2023-04-24T16:19:16.997Z,17.63
2023-04-24T16:21:49.543Z,17.63
2023-04-24T16:24:24.567Z,17.65
2023-04-24T16:26:56.681Z,17.51
2023-04-24T16:29:29.333Z,17.13
2023-04-24T16:32:01.503Z,17.13
2023-04-24T16:34:34.152Z,17.17
2023-04-24T16:37:06.770Z,17.25
2023-04-24T16:39:39.202Z,17.42
2023-04-24T16:42:11.528Z,17.34
2023-04-24T16:44:44.384Z,17.40
2023-04-24T16:47:17.339Z,17.45
2023-04-24T16:49:50.025Z,17.48
2023-04-24T16:52:22.442Z,17.48
2023-04-24T16:54:56.506Z,17.43
2023-04-24T16:57:28.712Z,17.42
2023-04-24T17:00:00.974Z,17.43
2023-04-24T17:02:33.525Z,17.36
2023-04-24T17:05:06.553Z,17.36
2023-04-24T17:07:39.143Z,17.33
2023-04-24T17:10:12.399Z,17.24
2023-04-24T17:12:44.726Z,17.00
2023-04-24T17:15:17.432Z,16.79
2023-04-24T17:17:51.757Z,16.96
2023-04-24T17:20:25.945Z,16.78
2023-04-24T17:23:00.548Z,16.81
2023-04-24T17:25:33.837Z,16.77
2023-04-24T17:28:14.511Z,16.76
2023-04-24T17:30:46.850Z,16.78
2023-04-24T17:33:19.322Z,16.76
2023-04-24T17:35:51.627Z,16.62
2023-04-24T17:38:23.821Z,16.43
2023-04-24T17:40:56.189Z,16.45
2023-04-24T17:43:28.964Z,16.35
2023-04-24T17:46:01.595Z,16.34
2023-04-24T17:48:34.115Z,16.31
2023-04-24T17:51:06.504Z,16.09
2023-04-24T17:53:39.656Z,15.94
2023-04-24T17:56:12.389Z,16.08
2023-04-24T17:58:44.817Z,16.03
2023-04-24T18:01:17.294Z,15.98
2023-04-24T18:03:49.808Z,16.08
2023-04-24T18:06:22.240Z,16.09
2023-04-24T18:08:54.501Z,16.03
2023-04-24T18:11:27.850Z,16.12
2023-04-24T18:14:00.490Z,16.07
2023-04-24T18:16:32.980Z,15.95
2023-04-24T18:19:05.235Z,16.07
2023-04-24T18:21:37.474Z,16.13
2023-04-24T18:24:10.883Z,16.18
2023-04-24T18:26:43.853Z,16.16
2023-04-24T18:29:16.234Z,16.19
2023-04-24T18:31:49.474Z,16.15
2023-04-24T18:34:22.012Z,16.16
2023-04-24T18:36:54.444Z,16.17
2023-04-24T18:39:27.246Z,16.17
2023-04-24T18:42:00.232Z,16.15
2023-04-24T18:44:32.361Z,16.16
2023-04-24T18:47:05.184Z,16.14
2023-04-24T18:49:38.124Z,16.12
2023-04-24T18:52:10.593Z,16.05
2023-04-24T18:54:43.278Z,16.02
2023-04-24T18:57:16.046Z,16.01
2023-04-24T18:59:48.759Z,16.07
2023-04-24T19:02:21.422Z,15.99
2023-04-24T19:04:54.016Z,15.92
2023-04-24T19:07:26.505Z,15.90
2023-04-24T19:09:58.675Z,15.91
2023-04-24T19:12:31.133Z,15.84
2023-04-24T19:15:03.228Z,15.98
2023-04-24T19:17:35.781Z,16.00
2023-04-24T19:20:09.966Z,16.00
2023-04-24T19:22:42.517Z,15.93
2023-04-24T19:25:15.306Z,15.89
2023-04-24T19:27:47.988Z,15.88
2023-04-24T19:30:20.456Z,15.91
2023-04-24T19:32:52.885Z,15.85
2023-04-24T19:35:25.418Z,15.81
2023-04-24T19:37:58.405Z,15.76
2023-04-24T19:40:30.736Z,15.76
2023-04-24T19:43:03.142Z,15.70
2023-04-24T19:45:36.134Z,15.76
2023-04-24T19:48:08.731Z,15.63
2023-04-24T19:50:42.750Z,15.57
2023-04-24T19:53:16.221Z,15.56
2023-04-24T19:55:48.683Z,15.54
2023-04-24T19:58:21.504Z,15.64
2023-04-24T20:00:53.798Z,15.61
2023-04-24T20:06:03.969Z,15.43
2023-04-24T20:08:39.004Z,15.42
2023-04-24T20:11:11.849Z,15.43
2023-04-24T20:13:44.283Z,15.28
2023-04-24T20:16:16.409Z,15.20
2023-04-24T20:18:48.942Z,15.20
2023-04-24T20:21:21.259Z,15.26
2023-04-24T20:23:53.828Z,15.22
2023-04-24T20:26:25.988Z,15.16
2023-04-24T20:28:58.472Z,15.07
2023-04-24T20:31:31.034Z,15.15
2023-04-24T20:34:03.704Z,15.19
2023-04-24T20:36:35.829Z,15.10
2023-04-24T20:39:09.767Z,14.97
2023-04-24T20:41:42.229Z,15.13
2023-04-24T20:44:14.969Z,15.10
2023-04-24T20:46:47.587Z,15.03
2023-04-24T20:49:20.042Z,15.01
2023-04-24T20:51:52.392Z,15.05
2023-04-24T20:54:25.439Z,14.86
2023-04-24T20:56:58.093Z,14.68
2023-04-24T20:59:30.786Z,14.61
2023-04-24T21:02:03.712Z,14.54
2023-04-24T21:04:38.687Z,14.57
2023-04-24T21:07:10.290Z,14.40
2023-04-24T21:09:42.481Z,14.26
2023-04-24T21:12:14.613Z,14.33
2023-04-24T21:14:48.634Z,14.26
2023-04-24T21:17:22.015Z,14.41
2023-04-24T21:19:56.415Z,14.38
2023-04-24T21:22:28.702Z,14.47
2023-04-24T21:25:01.277Z,14.40
2023-04-24T21:27:34.223Z,14.32
2023-04-24T21:30:08.016Z,14.23
2023-04-24T21:32:40.822Z,14.19
2023-04-24T21:35:13.592Z,14.23
2023-04-24T21:37:45.771Z,14.09
2023-04-24T21:40:18.440Z,13.89
2023-04-24T21:42:51.929Z,13.82
2023-04-24T21:45:24.473Z,13.84
2023-04-24T21:47:58.486Z,13.96
2023-04-24T21:50:30.767Z,13.93
2023-04-24T21:53:02.843Z,13.84
2023-04-24T21:55:35.361Z,13.99
2023-04-24T21:58:07.637Z,14.08
2023-04-24T22:00:40.397Z,14.20
2023-04-24T22:03:12.593Z,14.40
2023-04-24T22:05:45.405Z,14.39
2023-04-24T22:08:17.384Z,14.54
2023-04-24T22:10:49.685Z,14.40
2023-04-24T22:13:21.939Z,14.34
2023-04-24T22:15:54.400Z,14.15
2023-04-24T22:18:36.575Z,14.07
2023-04-24T22:21:16.528Z,14.21
2023-04-24T22:23:49.135Z,14.03
2023-04-24T22:26:21.795Z,14.14
2023-04-24T22:28:54.153Z,14.20
2023-04-24T22:31:27.021Z,14.34
2023-04-24T22:33:59.572Z,14.46
2023-04-24T22:36:32.039Z,14.45
2023-04-24T22:39:05.064Z,14.30
2023-04-24T22:41:37.148Z,14.20
2023-04-24T22:44:09.347Z,14.22
2023-04-24T22:46:41.819Z,14.15
2023-04-24T22:49:14.128Z,13.84
2023-04-24T22:51:48.038Z,13.54
2023-04-24T22:54:20.703Z,13.62
2023-04-24T22:56:53.230Z,13.59
2023-04-24T22:59:25.839Z,13.61
2023-04-24T23:01:59.476Z,13.40
2023-04-24T23:04:32.008Z,13.41
2023-04-24T23:07:04.657Z,13.66
2023-04-24T23:09:36.672Z,13.66
2023-04-24T23:12:09.271Z,13.63
2023-04-24T23:14:41.617Z,13.61
2023-04-24T23:17:13.758Z,13.39
2023-04-24T23:19:46.122Z,13.37
2023-04-24T23:22:18.829Z,13.45
2023-04-24T23:24:51.526Z,13.42
2023-04-24T23:27:23.908Z,13.32
2023-04-24T23:29:56.615Z,13.26
2023-04-24T23:32:29.226Z,13.32
2023-04-24T23:35:01.676Z,13.38
2023-04-24T23:37:34.005Z,13.54
2023-04-24T23:40:07.447Z,13.54
2023-04-24T23:42:39.658Z,13.44
2023-04-24T23:45:13.235Z,13.34
2023-04-24T23:47:45.999Z,13.34
2023-04-24T23:50:18.098Z,13.59
2023-04-24T23:52:50.831Z,13.66
2023-04-24T23:55:23.267Z,13.54
2023-04-24T23:57:55.713Z,13.54
